Arrowhead, Minnesota
Current Conditions -  °F | °C
As of 6:16 PM on Friday 28 Nov 2014 (Local Time) from KCOQ Reporting Station
Overcast Overcast  
Wind Chill: -15°   Ceiling: 3800
Heat Index: -9°   Visibility: 10mi
Dew Point: -12°   Wind: 8mph
Humidity: 79%   Direction: 110°ESE
Pressure: 29.83"   Gusts: NA
Location:  46.8211°N, 92.6871°W
Report Text: KCOQ 290016Z AUTO 11007KT 10SM OVC038 M09/M12 A2983 RMK AO2
Loading
Personal Weather Stations






























Interactive Weather Map New forecast layout! Learn more

10-Day Weather Forecast

Advertisements
Track Severe Weather on mobile